Notre-Dame-Du-Lac, Canada
Current Conditions -  °F | °C
As of 11:53 AM on Friday 31 Oct 2014 (Local Time) from KFVE Reporting Station
Overcast Overcast  
Wind Chill: 37°   Ceiling: 3800
Heat Index: 37°   Visibility: 10mi
Dew Point: 25°   Wind: 0mph
Humidity: 62%   Direction: NA
Pressure: 30.04"   Gusts: NA
Location:  47.6°N, 68.8°W
Report Text: KFVE 311553Z AUTO 00000KT 10SM BKN038 OVC046 03/M04 A3004 RMK AO2 SLP179 T00281039
Loading
Personal Weather Stations






























Interactive Weather Map
Tropical Storm Tracking
New forecast layout! Learn more

10-Day Weather Forecast

Advertisements
Track Severe Weather on mobile